Time;durP1;ratioP1;P1;durP2;ratioP2;P2;SDS_P1;SDS_P2;PMS_P1;PMS_P2;Temp;Humidity;BMP_temperature;BMP_pressure;BME280_temperature;BME280_humidity;BME280_pressure;Samples;Min_cycle;Max_cycle;Signal;HPM_P1;HPM_P2
2022/10/26 00:01:25;;;;;;;11.35;7.68;;;;;;;;;;5071273;28;20596;-70
2022/10/26 00:03:50;;;;;;;18.38;9.18;;;;;;;;;;5085953;28;20190;-70
2022/10/26 00:06:18;;;;;;;16.88;9.80;;;;;;;;;;5068571;28;20193;-70
2022/10/26 00:08:44;;;;;;;14.55;9.15;;;;;;;;;;5072749;28;20205;-70
2022/10/26 00:11:10;;;;;;;13.10;9.38;;;;;;;;;;5084616;28;20658;-70
2022/10/26 00:13:36;;;;;;;12.73;7.60;;;;;;;;;;5075386;28;20185;-70
2022/10/26 00:16:08;;;;;;;14.27;8.88;;;;;;;;;;5087494;28;20529;-70
2022/10/26 00:18:33;;;;;;;9.90;7.45;;;;;;;;;;5076754;28;20180;-70
2022/10/26 00:21:06;;;;;;;14.55;6.82;;;;;;;;;;5078258;28;20191;-70
2022/10/26 00:23:31;;;;;;;12.80;7.68;;;;;;;;;;5071616;28;20279;-70
2022/10/26 00:25:57;;;;;;;13.07;7.03;;;;;;;;;;5089183;28;20271;-70
2022/10/26 00:28:23;;;;;;;10.77;6.80;;;;;;;;;;5074458;28;20593;-70
2022/10/26 00:30:48;;;;;;;11.30;7.60;;;;;;;;;;5083257;28;20180;-70
2022/10/26 00:33:14;;;;;;;12.27;7.03;;;;;;;;;;5072245;28;20565;-70
2022/10/26 00:35:39;;;;;;;14.23;7.47;;;;;;;;;;5076898;28;20267;-70
2022/10/26 00:38:04;;;;;;;18.25;7.70;;;;;;;;;;5068748;28;20186;-70
2022/10/26 00:40:30;;;;;;;15.77;8.10;;;;;;;;;;5081570;28;20196;-70
2022/10/26 00:42:55;;;;;;;14.95;8.25;;;;;;;;;;5078442;28;20176;-70
2022/10/26 00:45:28;;;;;;;15.13;7.68;;;;;;;;;;5075754;28;20227;-70
2022/10/26 00:48:06;;;;;;;21.13;9.80;;;;;;;;;;5081603;28;20183;-70
2022/10/26 00:50:35;;;;;;;16.67;9.80;;;;;;;;;;5078215;28;20219;-70
2022/10/26 00:53:03;;;;;;;21.00;9.97;;;;;;;;;;5068836;28;20266;-70
2022/10/26 00:55:33;;;;;;;14.82;9.32;;;;;;;;;;5082197;28;20191;-70
2022/10/26 00:58:01;;;;;;;18.67;9.80;;;;;;;;;;5079228;28;20187;-70
2022/10/26 01:00:27;;;;;;;21.10;9.95;;;;;;;;;;5086056;28;20660;-70
2022/10/26 01:02:56;;;;;;;17.27;11.70;;;;;;;;;;5083575;28;20187;-70
2022/10/26 01:05:22;;;;;;;21.52;10.02;;;;;;;;;;5089665;28;20193;-70
2022/10/26 01:07:48;;;;;;;17.10;9.73;;;;;;;;;;5083577;28;20179;-70
2022/10/26 01:10:14;;;;;;;16.58;9.55;;;;;;;;;;5077015;28;20526;-70
2022/10/26 01:12:39;;;;;;;21.15;10.45;;;;;;;;;;5078978;28;20197;-70
2022/10/26 01:15:05;;;;;;;22.50;11.40;;;;;;;;;;5070444;28;20177;-70
2022/10/26 01:17:49;;;;;;;16.80;11.55;;;;;;;;;;5082206;28;20180;-70
2022/10/26 01:20:52;;;;;;;18.70;10.48;;;;;;;;;;5070918;28;20750;-68
2022/10/26 01:23:51;;;;;;;17.20;10.02;;;;;;;;;;5076772;28;20193;-70
2022/10/26 01:26:45;;;;;;;17.10;10.25;;;;;;;;;;5082250;28;20194;-70
2022/10/26 01:29:48;;;;;;;20.50;10.25;;;;;;;;;;5078235;28;20238;-70
2022/10/26 01:32:23;;;;;;;18.25;9.38;;;;;;;;;;5077538;28;20227;-70
2022/10/26 01:35:03;;;;;;;17.27;9.50;;;;;;;;;;5077324;28;20383;-70
2022/10/26 01:37:35;;;;;;;18.65;10.00;;;;;;;;;;5086195;28;20183;-70
2022/10/26 01:40:18;;;;;;;18.60;11.37;;;;;;;;;;5084026;28;20184;-70
2022/10/26 01:42:47;;;;;;;19.77;10.63;;;;;;;;;;5073565;28;20180;-70
2022/10/26 01:45:15;;;;;;;24.67;13.63;;;;;;;;;;5078709;28;20270;-70
2022/10/26 01:47:42;;;;;;;22.55;13.18;;;;;;;;;;5088162;28;20195;-71
2022/10/26 01:50:10;;;;;;;25.07;13.90;;;;;;;;;;5084491;28;20188;-70
2022/10/26 01:52:35;;;;;;;25.67;16.03;;;;;;;;;;5076998;28;20265;-70
2022/10/26 01:55:24;;;;;;;29.97;16.17;;;;;;;;;;5080639;28;20551;-70
2022/10/26 01:57:51;;;;;;;27.75;14.48;;;;;;;;;;5071357;28;20207;-70
2022/10/26 02:00:17;;;;;;;27.43;16.63;;;;;;;;;;5083602;28;20192;-70
2022/10/26 02:03:14;;;;;;;29.20;16.42;;;;;;;;;;5087469;28;20180;-70
2022/10/26 02:05:50;;;;;;;28.92;15.75;;;;;;;;;;5086830;28;20184;-70
2022/10/26 02:08:37;;;;;;;24.48;14.77;;;;;;;;;;5090273;28;20216;-70
2022/10/26 02:11:35;;;;;;;33.58;16.00;;;;;;;;;;5082415;28;20540;-70
2022/10/26 02:14:21;;;;;;;31.45;15.32;;;;;;;;;;5074536;28;20699;-70
2022/10/26 02:17:12;;;;;;;27.83;16.13;;;;;;;;;;5071668;28;20193;-70
2022/10/26 02:19:44;;;;;;;27.33;16.52;;;;;;;;;;5079651;28;20204;-70
2022/10/26 02:22:32;;;;;;;25.40;16.45;;;;;;;;;;5075180;28;20254;-70
2022/10/26 02:24:59;;;;;;;33.33;18.23;;;;;;;;;;5073995;28;20181;-70
2022/10/26 02:27:30;;;;;;;30.30;17.88;;;;;;;;;;5090860;28;20257;-70
2022/10/26 02:29:56;;;;;;;35.13;17.83;;;;;;;;;;5081380;28;20299;-70
2022/10/26 02:32:25;;;;;;;35.95;18.75;;;;;;;;;;5076403;28;20221;-68
2022/10/26 02:34:52;;;;;;;31.27;17.45;;;;;;;;;;5083387;28;20547;-70
2022/10/26 02:37:21;;;;;;;30.38;18.50;;;;;;;;;;5071338;28;20165;-70
2022/10/26 02:39:49;;;;;;;35.30;20.30;;;;;;;;;;5074315;28;20181;-70
2022/10/26 02:42:16;;;;;;;37.40;20.23;;;;;;;;;;5082560;28;20176;-70
2022/10/26 02:44:47;;;;;;;39.63;20.70;;;;;;;;;;5075787;28;20198;-70
2022/10/26 02:47:12;;;;;;;34.35;20.10;;;;;;;;;;5069141;28;20224;-70
2022/10/26 02:49:38;;;;;;;34.17;20.10;;;;;;;;;;5076581;28;20445;-71
2022/10/26 02:52:24;;;;;;;37.78;20.77;;;;;;;;;;5071836;28;20227;-70
2022/10/26 02:55:13;;;;;;;35.55;20.70;;;;;;;;;;5076404;28;20195;-71
2022/10/26 02:57:42;;;;;;;38.08;20.40;;;;;;;;;;5071317;28;20268;-70
2022/10/26 03:00:14;;;;;;;39.20;20.45;;;;;;;;;;5072461;28;20551;-71
2022/10/26 03:02:42;;;;;;;40.88;22.77;;;;;;;;;;5073829;28;20544;-71
2022/10/26 03:05:18;;;;;;;42.67;22.02;;;;;;;;;;5078336;28;20589;-70
2022/10/26 03:07:44;;;;;;;39.10;21.73;;;;;;;;;;5071978;28;20184;-70
2022/10/26 03:10:09;;;;;;;34.47;21.30;;;;;;;;;;5085217;28;20534;-71
2022/10/26 03:12:35;;;;;;;40.88;21.42;;;;;;;;;;5078045;28;20688;-71
2022/10/26 03:15:01;;;;;;;40.58;22.42;;;;;;;;;;5077146;28;20210;-71
2022/10/26 03:17:26;;;;;;;41.80;23.65;;;;;;;;;;5074138;28;20192;-70
2022/10/26 03:19:51;;;;;;;43.80;23.30;;;;;;;;;;5068924;28;20193;-70
2022/10/26 03:22:17;;;;;;;41.20;21.23;;;;;;;;;;5071478;28;20184;-70
2022/10/26 03:24:42;;;;;;;37.92;21.75;;;;;;;;;;5076736;28;20387;-70
2022/10/26 03:27:07;;;;;;;38.30;21.77;;;;;;;;;;5071180;28;20177;-70
2022/10/26 03:29:33;;;;;;;40.92;22.15;;;;;;;;;;5071310;28;20294;-70
2022/10/26 03:31:58;;;;;;;39.05;22.27;;;;;;;;;;5078150;28;20713;-70
2022/10/26 03:34:23;;;;;;;37.25;22.25;;;;;;;;;;5071348;28;20260;-71
2022/10/26 03:36:49;;;;;;;40.22;22.60;;;;;;;;;;5073015;28;20289;-71
2022/10/26 03:39:14;;;;;;;37.88;22.33;;;;;;;;;;5079014;28;20542;-70
2022/10/26 03:41:39;;;;;;;43.65;21.23;;;;;;;;;;5074201;28;20246;-70
2022/10/26 03:44:05;;;;;;;42.35;21.45;;;;;;;;;;5074365;28;20188;-70
2022/10/26 03:46:31;;;;;;;47.42;21.58;;;;;;;;;;5077779;28;20668;-71
2022/10/26 03:48:56;;;;;;;36.95;20.80;;;;;;;;;;5078645;28;20180;-70
2022/10/26 03:51:21;;;;;;;37.10;21.90;;;;;;;;;;5072799;28;20204;-70
2022/10/26 03:53:47;;;;;;;40.67;20.15;;;;;;;;;;5076023;28;20188;-70
2022/10/26 03:56:12;;;;;;;34.55;20.65;;;;;;;;;;5073347;28;20250;-70
2022/10/26 03:58:37;;;;;;;40.63;21.02;;;;;;;;;;5076325;28;20185;-70
2022/10/26 04:01:03;;;;;;;35.28;20.92;;;;;;;;;;5074156;28;20194;-70
2022/10/26 04:03:28;;;;;;;37.53;19.92;;;;;;;;;;5070988;28;20660;-71
2022/10/26 04:05:53;;;;;;;36.63;20.48;;;;;;;;;;5079843;28;20713;-70
2022/10/26 04:08:19;;;;;;;37.45;20.08;;;;;;;;;;5066966;28;20823;-71
2022/10/26 04:10:44;;;;;;;37.20;19.50;;;;;;;;;;5077116;28;20257;-71
2022/10/26 04:13:10;;;;;;;38.45;19.35;;;;;;;;;;5073865;28;20558;-71
2022/10/26 04:15:35;;;;;;;34.95;20.20;;;;;;;;;;5073430;28;20271;-71
2022/10/26 04:18:02;;;;;;;31.42;19.10;;;;;;;;;;5074596;28;20183;-71
2022/10/26 04:20:28;;;;;;;34.58;19.05;;;;;;;;;;5070291;28;20195;-70
2022/10/26 04:23:02;;;;;;;33.65;19.33;;;;;;;;;;5073320;28;20176;-71
2022/10/26 04:25:28;;;;;;;32.83;19.80;;;;;;;;;;5083459;28;20545;-71
2022/10/26 04:27:54;;;;;;;29.80;18.30;;;;;;;;;;5074626;28;20184;-71
2022/10/26 04:30:19;;;;;;;33.85;18.25;;;;;;;;;;5074255;28;20626;-71
2022/10/26 04:32:45;;;;;;;32.13;19.55;;;;;;;;;;5083308;28;20216;-71
2022/10/26 04:35:10;;;;;;;36.33;19.48;;;;;;;;;;5085249;28;20401;-71
2022/10/26 04:37:35;;;;;;;36.20;19.38;;;;;;;;;;5084878;28;20206;-71
2022/10/26 04:40:01;;;;;;;32.00;18.15;;;;;;;;;;5069095;28;20243;-70
2022/10/26 04:42:26;;;;;;;32.63;18.50;;;;;;;;;;5075569;28;20199;-70
2022/10/26 04:44:51;;;;;;;35.60;17.13;;;;;;;;;;5072935;28;20206;-70
2022/10/26 04:47:17;;;;;;;31.25;17.88;;;;;;;;;;5074412;28;20212;-70
2022/10/26 04:49:42;;;;;;;34.78;17.88;;;;;;;;;;5067289;28;20378;-70
2022/10/26 04:52:07;;;;;;;30.75;17.85;;;;;;;;;;5078359;28;20218;-70
2022/10/26 04:54:33;;;;;;;32.88;17.63;;;;;;;;;;5072165;28;20652;-70
2022/10/26 04:56:58;;;;;;;35.65;16.88;;;;;;;;;;5073542;28;20260;-70
2022/10/26 04:59:23;;;;;;;26.60;17.13;;;;;;;;;;5068084;28;20267;-70
2022/10/26 05:01:49;;;;;;;28.02;16.90;;;;;;;;;;5081620;28;20203;-70
2022/10/26 05:04:14;;;;;;;29.13;17.08;;;;;;;;;;5076172;28;20177;-71
2022/10/26 05:06:39;;;;;;;29.92;16.63;;;;;;;;;;5078886;28;20253;-71
2022/10/26 05:09:05;;;;;;;34.40;18.42;;;;;;;;;;5082711;28;20190;-71
2022/10/26 05:11:30;;;;;;;27.27;16.05;;;;;;;;;;5070502;28;20193;-71
2022/10/26 05:13:55;;;;;;;28.77;16.88;;;;;;;;;;5076977;28;20185;-71
2022/10/26 05:16:21;;;;;;;23.58;14.40;;;;;;;;;;5076034;28;20167;-71
2022/10/26 05:18:48;;;;;;;24.27;15.77;;;;;;;;;;5081629;28;20215;-71
2022/10/26 05:21:18;;;;;;;24.88;15.93;;;;;;;;;;5076111;28;20281;-68
2022/10/26 05:23:44;;;;;;;22.95;15.27;;;;;;;;;;5066784;28;20254;-68
2022/10/26 05:26:09;;;;;;;25.98;15.25;;;;;;;;;;5069929;28;20177;-70
2022/10/26 05:28:34;;;;;;;26.23;14.50;;;;;;;;;;5077939;28;20230;-70
2022/10/26 05:30:59;;;;;;;23.60;14.57;;;;;;;;;;5072748;28;20561;-71
2022/10/26 05:33:25;;;;;;;22.48;14.75;;;;;;;;;;5071183;28;20207;-71
2022/10/26 05:35:53;;;;;;;25.50;14.35;;;;;;;;;;5070641;28;20195;-71
2022/10/26 05:38:19;;;;;;;24.35;14.52;;;;;;;;;;5081729;28;20635;-71
2022/10/26 05:40:51;;;;;;;25.17;15.00;;;;;;;;;;5079126;28;20185;-71
2022/10/26 05:43:18;;;;;;;29.48;15.18;;;;;;;;;;5077248;28;20176;-71
2022/10/26 05:45:43;;;;;;;20.67;13.80;;;;;;;;;;5071828;28;20204;-71
2022/10/26 05:48:09;;;;;;;23.30;13.93;;;;;;;;;;5079009;28;20203;-70
2022/10/26 05:50:34;;;;;;;24.83;13.85;;;;;;;;;;5077297;28;20173;-70
2022/10/26 05:53:00;;;;;;;26.65;14.27;;;;;;;;;;5074304;28;20631;-70
2022/10/26 05:55:25;;;;;;;28.00;14.18;;;;;;;;;;5075045;28;20189;-70
2022/10/26 05:57:51;;;;;;;22.17;12.75;;;;;;;;;;5076863;28;20671;-68
2022/10/26 06:00:20;;;;;;;20.25;13.35;;;;;;;;;;5075725;28;20284;-71
2022/10/26 06:03:13;;;;;;;24.58;12.88;;;;;;;;;;5076982;28;20207;-70
2022/10/26 06:05:53;;;;;;;26.75;13.38;;;;;;;;;;5075433;28;20188;-70
2022/10/26 06:08:21;;;;;;;23.58;12.98;;;;;;;;;;5071922;28;20805;-71
2022/10/26 06:10:47;;;;;;;21.70;12.80;;;;;;;;;;5065775;28;20185;-71
2022/10/26 06:13:12;;;;;;;21.40;12.18;;;;;;;;;;5078611;28;20709;-71
2022/10/26 06:15:55;;;;;;;24.23;13.43;;;;;;;;;;5077640;28;20185;-71
2022/10/26 06:18:52;;;;;;;20.48;12.30;;;;;;;;;;5080778;28;20180;-71
2022/10/26 06:21:39;;;;;;;23.38;12.80;;;;;;;;;;5079298;28;20188;-71
2022/10/26 06:24:25;;;;;;;20.40;13.52;;;;;;;;;;5069172;28;20556;-71
2022/10/26 06:27:23;;;;;;;20.67;12.30;;;;;;;;;;5078958;28;20745;-71
2022/10/26 06:30:05;;;;;;;20.52;12.45;;;;;;;;;;5076048;28;20228;-71
2022/10/26 06:32:31;;;;;;;21.88;12.63;;;;;;;;;;5084467;28;20689;-71
2022/10/26 06:35:04;;;;;;;20.10;11.82;;;;;;;;;;5078986;28;20256;-71
2022/10/26 06:37:31;;;;;;;20.65;12.18;;;;;;;;;;5079658;28;20183;-71
2022/10/26 06:39:57;;;;;;;23.10;13.30;;;;;;;;;;5070262;28;20831;-71
2022/10/26 06:42:23;;;;;;;20.92;12.70;;;;;;;;;;5079033;28;20212;-71
2022/10/26 06:44:49;;;;;;;20.80;12.95;;;;;;;;;;5074509;28;20603;-71
2022/10/26 06:47:30;;;;;;;24.65;12.25;;;;;;;;;;5076049;28;20188;-71
2022/10/26 06:50:29;;;;;;;23.55;12.45;;;;;;;;;;5077013;28;20210;-70
2022/10/26 06:53:36;;;;;;;20.15;12.50;;;;;;;;;;5084459;28;20215;-71
2022/10/26 06:56:01;;;;;;;20.85;13.02;;;;;;;;;;5079097;28;20262;-71
2022/10/26 06:58:29;;;;;;;19.30;12.98;;;;;;;;;;5083340;28;20680;-71
2022/10/26 07:00:56;;;;;;;22.33;13.38;;;;;;;;;;5089697;28;20180;-69
2022/10/26 07:03:21;;;;;;;22.45;12.75;;;;;;;;;;5090376;28;20194;-70
2022/10/26 07:05:47;;;;;;;24.10;12.75;;;;;;;;;;5088430;28;20270;-70
2022/10/26 07:08:12;;;;;;;19.88;12.00;;;;;;;;;;5081494;28;20227;-70
2022/10/26 07:10:38;;;;;;;27.67;12.13;;;;;;;;;;5071689;28;20185;-70
2022/10/26 07:13:05;;;;;;;23.13;11.50;;;;;;;;;;5090303;28;20204;-70
2022/10/26 07:15:31;;;;;;;20.55;11.80;;;;;;;;;;5085499;28;20208;-71
2022/10/26 07:17:56;;;;;;;20.45;11.00;;;;;;;;;;5087463;28;20253;-71
2022/10/26 07:20:22;;;;;;;20.55;10.77;;;;;;;;;;5085462;28;20169;-71
2022/10/26 07:22:54;;;;;;;16.05;11.45;;;;;;;;;;5083630;28;20202;-71
2022/10/26 07:25:20;;;;;;;16.85;9.82;;;;;;;;;;5086686;28;20233;-71
2022/10/26 07:27:46;;;;;;;19.05;10.18;;;;;;;;;;5088464;28;20219;-69
2022/10/26 07:30:11;;;;;;;17.27;10.32;;;;;;;;;;5070175;28;20295;-71
2022/10/26 07:32:37;;;;;;;18.25;10.18;;;;;;;;;;5080339;28;20216;-71
2022/10/26 07:35:02;;;;;;;21.25;9.75;;;;;;;;;;5089949;28;20212;-71
2022/10/26 07:37:28;;;;;;;17.33;9.63;;;;;;;;;;5080188;28;20851;-69
2022/10/26 07:39:53;;;;;;;19.15;9.57;;;;;;;;;;5074647;28;20185;-69
2022/10/26 07:42:18;;;;;;;18.63;9.50;;;;;;;;;;5075604;28;20181;-71
2022/10/26 07:44:44;;;;;;;12.23;9.25;;;;;;;;;;5072284;28;20265;-69
2022/10/26 07:47:09;;;;;;;14.57;9.20;;;;;;;;;;5070799;28;20204;-70
2022/10/26 07:49:34;;;;;;;21.40;9.27;;;;;;;;;;5069393;28;20188;-69
2022/10/26 07:52:00;;;;;;;16.40;8.95;;;;;;;;;;5074115;28;20203;-70
2022/10/26 07:54:25;;;;;;;15.77;8.70;;;;;;;;;;5068889;28;20188;-69
2022/10/26 07:56:50;;;;;;;12.90;8.52;;;;;;;;;;5071030;28;20691;-69
2022/10/26 07:59:17;;;;;;;14.10;8.70;;;;;;;;;;5073371;28;20208;-71
2022/10/26 08:01:42;;;;;;;19.13;7.85;;;;;;;;;;5072379;28;20203;-68
2022/10/26 08:04:08;;;;;;;18.67;8.07;;;;;;;;;;5084624;28;20224;-71
2022/10/26 08:06:33;;;;;;;18.02;7.70;;;;;;;;;;5074692;28;20196;-71
2022/10/26 08:08:58;;;;;;;13.45;7.25;;;;;;;;;;5075748;28;20180;-69
2022/10/26 08:11:24;;;;;;;14.85;7.50;;;;;;;;;;5075158;28;20206;-68
2022/10/26 08:13:53;;;;;;;15.70;7.47;;;;;;;;;;5073744;28;20218;-69
2022/10/26 08:16:19;;;;;;;11.32;7.07;;;;;;;;;;5076171;28;20168;-69
2022/10/26 08:18:50;;;;;;;17.92;7.13;;;;;;;;;;5081792;28;20177;-69
2022/10/26 08:21:16;;;;;;;13.55;7.25;;;;;;;;;;5070847;28;20176;-69
2022/10/26 08:23:42;;;;;;;10.43;6.72;;;;;;;;;;5085280;28;20183;-69
2022/10/26 08:26:10;;;;;;;16.17;7.25;;;;;;;;;;5068155;28;20544;-70
2022/10/26 08:28:36;;;;;;;10.05;6.78;;;;;;;;;;5073040;28;20685;-70
2022/10/26 08:31:02;;;;;;;13.23;6.82;;;;;;;;;;5071328;28;20181;-69
2022/10/26 08:33:29;;;;;;;12.27;6.95;;;;;;;;;;5073882;28;20219;-69
2022/10/26 08:35:59;;;;;;;13.35;6.60;;;;;;;;;;5072198;28;20177;-69
2022/10/26 08:38:25;;;;;;;10.52;6.65;;;;;;;;;;5067893;28;20200;-69
2022/10/26 08:40:52;;;;;;;10.55;6.40;;;;;;;;;;5069163;28;20181;-69
2022/10/26 08:43:41;;;;;;;9.55;6.53;;;;;;;;;;5070952;28;20179;-69
2022/10/26 08:46:13;;;;;;;13.25;6.45;;;;;;;;;;5075473;28;20667;-69
2022/10/26 08:48:45;;;;;;;11.38;6.15;;;;;;;;;;5071408;28;20492;-69
2022/10/26 08:51:25;;;;;;;13.45;6.05;;;;;;;;;;5068077;28;20177;-69
2022/10/26 08:54:00;;;;;;;14.20;6.40;;;;;;;;;;5069006;28;20298;-69
2022/10/26 08:56:31;;;;;;;13.75;6.18;;;;;;;;;;5073520;28;20639;-70
2022/10/26 08:59:01;;;;;;;7.68;6.07;;;;;;;;;;5069418;28;20242;-69
2022/10/26 09:01:30;;;;;;;8.88;5.95;;;;;;;;;;5077046;28;20181;-69
2022/10/26 09:04:02;;;;;;;10.93;5.18;;;;;;;;;;5076239;28;20208;-69
2022/10/26 09:06:58;;;;;;;10.07;5.30;;;;;;;;;;5071333;28;20707;-69
2022/10/26 09:09:35;;;;;;;13.25;4.30;;;;;;;;;;5077675;28;20188;-69
2022/10/26 09:12:22;;;;;;;8.07;3.97;;;;;;;;;;5069458;28;20711;-69
2022/10/26 09:15:24;;;;;;;6.68;3.53;;;;;;;;;;5071607;28;20192;-68
2022/10/26 09:18:05;;;;;;;6.85;3.42;;;;;;;;;;5078059;28;20182;-69
2022/10/26 09:20:53;;;;;;;5.82;2.95;;;;;;;;;;5073936;28;20198;-68
2022/10/26 09:23:45;;;;;;;7.75;3.30;;;;;;;;;;5076567;28;20183;-68
2022/10/26 09:26:14;;;;;;;5.38;2.90;;;;;;;;;;5075755;28;20212;-68
2022/10/26 09:28:40;;;;;;;6.35;3.03;;;;;;;;;;5082744;28;20189;-68
2022/10/26 09:31:12;;;;;;;12.15;2.75;;;;;;;;;;5085369;28;20200;-68
2022/10/26 09:33:39;;;;;;;6.25;2.70;;;;;;;;;;5076341;28;20181;-68
2022/10/26 09:36:18;;;;;;;7.32;2.65;;;;;;;;;;5072272;28;20176;-68
2022/10/26 09:38:49;;;;;;;10.15;3.42;;;;;;;;;;5076974;28;20577;-68
2022/10/26 09:41:39;;;;;;;6.88;2.80;;;;;;;;;;5077339;28;20528;-70
2022/10/26 09:44:18;;;;;;;8.63;2.42;;;;;;;;;;5079682;28;20181;-68
2022/10/26 09:47:02;;;;;;;5.20;2.33;;;;;;;;;;5079757;28;20233;-68
2022/10/26 09:49:36;;;;;;;4.25;2.40;;;;;;;;;;5082110;28;20238;-68
2022/10/26 09:52:01;;;;;;;7.18;3.03;;;;;;;;;;5073858;28;20611;-70
2022/10/26 09:54:27;;;;;;;4.72;2.60;;;;;;;;;;5073462;28;20747;-68
2022/10/26 09:56:57;;;;;;;4.43;2.33;;;;;;;;;;5076653;28;20196;-69
2022/10/26 09:59:25;;;;;;;9.48;2.78;;;;;;;;;;5077069;28;20237;-69
2022/10/26 10:01:50;;;;;;;6.25;2.20;;;;;;;;;;5075641;28;20169;-68
2022/10/26 10:04:15;;;;;;;4.80;2.30;;;;;;;;;;5072907;28;20192;-69
2022/10/26 10:06:45;;;;;;;5.40;2.67;;;;;;;;;;5076417;28;20185;-68
2022/10/26 10:09:18;;;;;;;5.20;2.63;;;;;;;;;;5075468;28;20168;-68
2022/10/26 10:11:53;;;;;;;12.98;2.50;;;;;;;;;;5077095;28;20210;-68
2022/10/26 10:14:20;;;;;;;4.00;2.63;;;;;;;;;;5076563;28;20173;-68
2022/10/26 10:17:00;;;;;;;6.68;2.60;;;;;;;;;;5071521;28;20284;-67
2022/10/26 10:19:29;;;;;;;8.18;2.70;;;;;;;;;;5075591;28;20583;-68
2022/10/26 10:21:57;;;;;;;7.93;2.60;;;;;;;;;;5082056;28;20617;-69
2022/10/26 10:24:32;;;;;;;6.60;2.50;;;;;;;;;;5085767;28;20180;-68
2022/10/26 10:27:01;;;;;;;9.05;2.60;;;;;;;;;;5082712;28;20200;-68
2022/10/26 10:29:29;;;;;;;5.38;2.85;;;;;;;;;;5072673;28;20310;-68
2022/10/26 10:31:56;;;;;;;4.68;2.28;;;;;;;;;;5074702;28;20204;-70
2022/10/26 10:34:21;;;;;;;7.18;2.72;;;;;;;;;;5074510;28;20421;-69
2022/10/26 10:36:48;;;;;;;7.78;2.60;;;;;;;;;;5076952;28;20228;-69
2022/10/26 10:39:33;;;;;;;4.50;2.55;;;;;;;;;;5074870;28;20735;-69
2022/10/26 10:41:59;;;;;;;8.38;2.85;;;;;;;;;;5077741;28;20189;-68
2022/10/26 10:44:28;;;;;;;5.70;2.58;;;;;;;;;;5073155;28;20673;-68
2022/10/26 10:47:05;;;;;;;6.25;2.70;;;;;;;;;;5071880;28;20181;-68
2022/10/26 10:49:31;;;;;;;6.22;2.55;;;;;;;;;;5083683;28;20229;-68
2022/10/26 10:51:58;;;;;;;5.45;2.40;;;;;;;;;;5077550;28;20188;-68
2022/10/26 10:54:32;;;;;;;9.10;2.80;;;;;;;;;;5081261;28;20206;-69
2022/10/26 10:57:17;;;;;;;6.47;2.30;;;;;;;;;;5071341;28;20614;-69
2022/10/26 11:00:00;;;;;;;4.50;2.47;;;;;;;;;;5087315;28;20639;-68
2022/10/26 11:03:12;;;;;;;5.22;2.22;;;;;;;;;;5088536;28;20187;-68
2022/10/26 11:05:46;;;;;;;4.60;2.47;;;;;;;;;;5041359;28;20201;-68
2022/10/26 11:08:21;;;;;;;9.32;2.80;;;;;;;;;;5074610;28;20589;-68
2022/10/26 11:10:58;;;;;;;6.38;2.50;;;;;;;;;;5087667;28;20266;-68
2022/10/26 11:13:28;;;;;;;4.47;2.10;;;;;;;;;;5088462;28;20738;-69
2022/10/26 11:16:00;;;;;;;6.38;2.22;;;;;;;;;;5075420;28;20267;-69
2022/10/26 11:18:32;;;;;;;5.00;2.72;;;;;;;;;;5084616;28;20281;-69
2022/10/26 11:21:27;;;;;;;8.65;2.67;;;;;;;;;;5080048;28;20222;-70
2022/10/26 11:23:59;;;;;;;6.65;2.78;;;;;;;;;;5077767;28;20220;-69
2022/10/26 11:26:35;;;;;;;6.63;2.45;;;;;;;;;;5077029;28;20176;-69
2022/10/26 11:29:06;;;;;;;8.15;3.20;;;;;;;;;;5088808;28;20304;-69
2022/10/26 11:31:43;;;;;;;8.98;3.13;;;;;;;;;;5073970;28;20198;-69
2022/10/26 11:34:30;;;;;;;6.50;2.72;;;;;;;;;;5078412;28;20184;-69
2022/10/26 11:37:12;;;;;;;11.93;2.80;;;;;;;;;;5076367;28;20220;-69
2022/10/26 11:39:41;;;;;;;7.38;2.92;;;;;;;;;;5071998;28;20173;-69
2022/10/26 11:42:35;;;;;;;7.65;2.58;;;;;;;;;;5077554;28;20226;-69
2022/10/26 11:45:19;;;;;;;8.02;2.90;;;;;;;;;;5073278;28;20178;-70
2022/10/26 11:47:50;;;;;;;8.80;3.10;;;;;;;;;;5082637;28;20183;-71
2022/10/26 11:50:23;;;;;;;7.72;2.40;;;;;;;;;;5087670;28;20172;-69
2022/10/26 11:52:51;;;;;;;5.93;2.70;;;;;;;;;;5090186;28;20241;-68
2022/10/26 11:55:19;;;;;;;10.40;3.08;;;;;;;;;;5087693;28;20180;-68
2022/10/26 11:57:45;;;;;;;6.68;2.88;;;;;;;;;;5078498;28;20191;-68
2022/10/26 12:00:17;;;;;;;8.75;2.78;;;;;;;;;;5075529;28;20230;-68
2022/10/26 12:02:48;;;;;;;10.38;2.88;;;;;;;;;;5087167;28;20198;-68
2022/10/26 12:05:14;;;;;;;7.72;2.88;;;;;;;;;;5090487;28;20184;-69
2022/10/26 12:07:40;;;;;;;7.05;2.78;;;;;;;;;;5088945;28;20180;-69
2022/10/26 12:10:21;;;;;;;5.20;2.80;;;;;;;;;;5090039;28;20191;-69
2022/10/26 12:12:54;;;;;;;7.60;2.90;;;;;;;;;;5088368;28;20200;-68
2022/10/26 12:15:34;;;;;;;10.23;2.90;;;;;;;;;;5082031;28;20172;-68
2022/10/26 12:18:12;;;;;;;12.60;3.60;;;;;;;;;;5084161;28;20176;-68
2022/10/26 12:21:02;;;;;;;9.75;3.22;;;;;;;;;;5072842;28;20179;-68
2022/10/26 12:23:29;;;;;;;5.53;3.00;;;;;;;;;;5077895;28;20201;-68
2022/10/26 12:26:27;;;;;;;7.10;2.85;;;;;;;;;;5089337;28;20271;-68
2022/10/26 12:29:01;;;;;;;6.38;3.38;;;;;;;;;;5073298;28;20540;-68
2022/10/26 12:31:36;;;;;;;8.70;3.47;;;;;;;;;;5072716;28;20179;-68
2022/10/26 12:34:10;;;;;;;11.10;3.58;;;;;;;;;;5077709;28;20193;-68
2022/10/26 12:36:53;;;;;;;12.82;3.75;;;;;;;;;;5085454;28;20183;-68
2022/10/26 12:39:52;;;;;;;16.25;3.70;;;;;;;;;;5080866;28;20572;-68
2022/10/26 12:42:23;;;;;;;7.05;3.28;;;;;;;;;;5065913;28;20181;-68
2022/10/26 12:44:52;;;;;;;10.35;3.50;;;;;;;;;;5080564;28;20673;-68
2022/10/26 12:47:26;;;;;;;7.70;3.33;;;;;;;;;;5089474;28;20545;-68
2022/10/26 12:50:21;;;;;;;11.48;3.92;;;;;;;;;;5089124;28;20724;-67
2022/10/26 12:53:10;;;;;;;8.00;3.58;;;;;;;;;;5079766;28;20583;-68
2022/10/26 12:55:45;;;;;;;9.68;3.88;;;;;;;;;;5081722;28;20180;-69
2022/10/26 12:58:25;;;;;;;7.18;4.18;;;;;;;;;;5082163;28;20184;-70
2022/10/26 13:01:18;;;;;;;8.52;4.32;;;;;;;;;;5069392;28;20551;-67
2022/10/26 13:04:11;;;;;;;7.75;4.00;;;;;;;;;;5085031;28;20695;-68
2022/10/26 13:07:10;;;;;;;8.70;4.25;;;;;;;;;;5067353;28;20216;-69
2022/10/26 13:09:36;;;;;;;9.63;4.95;;;;;;;;;;5070565;28;20533;-68
2022/10/26 13:12:02;;;;;;;11.52;4.47;;;;;;;;;;5069474;28;20193;-70
2022/10/26 13:14:48;;;;;;;11.60;4.88;;;;;;;;;;5071813;28;20185;-68
2022/10/26 13:17:24;;;;;;;8.85;3.92;;;;;;;;;;5069615;28;20591;-68
2022/10/26 13:19:55;;;;;;;12.02;4.28;;;;;;;;;;5075244;28;20652;-68
2022/10/26 13:22:21;;;;;;;9.13;4.45;;;;;;;;;;5067734;28;20172;-68
2022/10/26 13:25:00;;;;;;;7.45;4.20;;;;;;;;;;5072756;28;20583;-68
2022/10/26 13:27:31;;;;;;;12.50;4.93;;;;;;;;;;5071518;28;20188;-69
2022/10/26 13:30:02;;;;;;;10.27;4.43;;;;;;;;;;5072200;28;20285;-69
2022/10/26 13:32:34;;;;;;;8.98;4.30;;;;;;;;;;5067805;28;20707;-68
2022/10/26 13:35:01;;;;;;;10.02;4.30;;;;;;;;;;5077403;28;20553;-69
2022/10/26 13:37:30;;;;;;;9.90;4.22;;;;;;;;;;5077205;28;20185;-68
2022/10/26 13:39:58;;;;;;;8.00;4.00;;;;;;;;;;5073291;28;20777;-68
2022/10/26 13:42:26;;;;;;;7.38;3.97;;;;;;;;;;5071610;28;20528;-69
2022/10/26 13:44:55;;;;;;;6.43;3.38;;;;;;;;;;5085121;28;20635;-69
2022/10/26 13:47:32;;;;;;;5.88;3.50;;;;;;;;;;5086428;28;20534;-68
2022/10/26 13:50:06;;;;;;;9.07;3.67;;;;;;;;;;5091478;28;20240;-68
2022/10/26 13:52:41;;;;;;;12.05;3.80;;;;;;;;;;5086570;28;20212;-69
2022/10/26 13:55:15;;;;;;;9.63;3.75;;;;;;;;;;5075523;28;20177;-69
2022/10/26 13:57:55;;;;;;;5.55;3.20;;;;;;;;;;5078242;28;20197;-68
2022/10/26 14:00:22;;;;;;;6.57;3.38;;;;;;;;;;5085253;28;20185;-68
2022/10/26 14:02:47;;;;;;;6.05;3.25;;;;;;;;;;5078096;28;20176;-68
2022/10/26 14:05:16;;;;;;;10.48;3.33;;;;;;;;;;5076851;28;20180;-69
2022/10/26 14:07:41;;;;;;;7.97;3.47;;;;;;;;;;5074713;28;21343;-68
2022/10/26 14:10:33;;;;;;;8.70;2.80;;;;;;;;;;5077991;28;20702;-68
2022/10/26 14:12:59;;;;;;;9.63;3.05;;;;;;;;;;5079290;28;20200;-70
2022/10/26 14:15:29;;;;;;;8.55;3.45;;;;;;;;;;5081638;28;20172;-68
2022/10/26 14:17:56;;;;;;;8.50;3.85;;;;;;;;;;5074815;28;20272;-69
2022/10/26 14:20:23;;;;;;;5.53;2.95;;;;;;;;;;5076885;28;20219;-68
2022/10/26 14:22:49;;;;;;;7.00;3.53;;;;;;;;;;5074220;28;20536;-68
2022/10/26 14:25:24;;;;;;;10.43;3.00;;;;;;;;;;5091485;28;20361;-69
2022/10/26 14:27:50;;;;;;;7.38;3.05;;;;;;;;;;5082796;28;20188;-68
2022/10/26 14:30:28;;;;;;;8.65;3.25;;;;;;;;;;5086652;28;20672;-68
2022/10/26 14:32:55;;;;;;;7.05;3.17;;;;;;;;;;5081579;28;20252;-68
2022/10/26 14:35:24;;;;;;;9.15;3.20;;;;;;;;;;5081514;28;20264;-69
2022/10/26 14:37:49;;;;;;;16.02;3.22;;;;;;;;;;5075233;28;20223;-68
2022/10/26 14:40:17;;;;;;;8.68;3.67;;;;;;;;;;5077950;28;20203;-68
2022/10/26 14:42:48;;;;;;;10.63;3.10;;;;;;;;;;5079249;28;20310;-68
2022/10/26 14:45:26;;;;;;;8.43;2.97;;;;;;;;;;5075969;28;20659;-68
2022/10/26 14:47:51;;;;;;;8.45;3.08;;;;;;;;;;5077937;28;20662;-68
2022/10/26 14:50:19;;;;;;;6.35;2.78;;;;;;;;;;5072565;28;20181;-68
2022/10/26 14:52:53;;;;;;;7.93;3.00;;;;;;;;;;5071597;28;20342;-68
2022/10/26 14:55:19;;;;;;;8.07;2.92;;;;;;;;;;5074187;28;20186;-68